Time;durP1;ratioP1;P1;durP2;ratioP2;P2;SDS_P1;SDS_P2;PMS_P1;PMS_P2;Temp;Humidity;BMP_temperature;BMP_pressure;BME280_temperature;BME280_humidity;BME280_pressure;Samples;Min_cycle;Max_cycle;Signal;HPM_P1;HPM_P2
2022/07/13 00:00:27;;;;;;;4.20;1.20;;;;;;;17.71;54.26;99710.88;105786;1281;108899;-76
2022/07/13 00:03:08;;;;;;;3.30;1.10;;;;;;;17.69;54.34;99709.45;106337;1279;108738;-76
2022/07/13 00:05:41;;;;;;;3.80;1.30;;;;;;;17.66;54.60;99707.34;105865;1281;138090;-77
2022/07/13 00:08:14;;;;;;;4.50;1.30;;;;;;;17.63;54.62;99708.09;105896;1281;97972;-76
2022/07/13 00:10:46;;;;;;;1.90;1.00;;;;;;;17.60;54.83;99707.42;106469;1279;138823;-76
2022/07/13 00:13:19;;;;;;;3.20;1.10;;;;;;;17.58;54.96;99694.91;107120;1281;108951;-77
2022/07/13 00:15:51;;;;;;;4.60;1.20;;;;;;;17.54;55.08;99706.04;107062;1279;108952;-77
2022/07/13 00:18:24;;;;;;;2.50;1.20;;;;;;;17.51;55.29;99707.85;107053;1281;96116;-77
2022/07/13 00:20:57;;;;;;;3.80;1.30;;;;;;;17.49;55.40;99710.99;106996;1280;96043;-77
2022/07/13 00:23:30;;;;;;;4.60;1.30;;;;;;;17.47;55.60;99708.30;105801;1279;137771;-77
2022/07/13 00:26:02;;;;;;;2.50;1.30;;;;;;;17.45;55.82;99704.95;105842;1281;109295;-78
2022/07/13 00:28:36;;;;;;;4.50;1.30;;;;;;;17.41;56.09;99710.65;106052;1280;139941;-77
2022/07/13 00:31:08;;;;;;;5.80;1.70;;;;;;;17.37;56.38;99715.86;105721;1279;97931;-77
2022/07/13 00:33:41;;;;;;;8.60;1.50;;;;;;;17.33;56.53;99713.00;107149;1279;96094;-78
2022/07/13 00:36:13;;;;;;;6.70;2.20;;;;;;;17.27;56.73;99715.71;106919;1279;138385;-77
2022/07/13 00:38:46;;;;;;;8.20;1.60;;;;;;;17.21;57.15;99705.48;106792;1279;108953;-77
2022/07/13 00:41:18;;;;;;;3.10;1.60;;;;;;;17.16;57.53;99707.09;105633;1281;139265;-78
2022/07/13 00:43:51;;;;;;;2.50;1.40;;;;;;;17.11;57.81;99708.49;105858;1281;98122;-78
2022/07/13 00:46:23;;;;;;;3.90;1.40;;;;;;;17.07;57.88;99710.91;106084;1281;138780;-78
2022/07/13 00:48:56;;;;;;;3.10;1.30;;;;;;;17.04;58.05;99710.91;107120;1281;112522;-78
2022/07/13 00:51:28;;;;;;;7.30;1.70;;;;;;;17.01;58.33;99711.27;107039;1279;107019;-78
2022/07/13 00:54:02;;;;;;;4.90;1.50;;;;;;;16.99;58.55;99710.23;106818;1281;138806;-78
2022/07/13 00:56:34;;;;;;;4.70;1.50;;;;;;;16.94;58.90;99701.40;106802;1279;96197;-77
2022/07/13 00:59:08;;;;;;;4.10;1.70;;;;;;;16.93;58.95;99705.86;106905;1281;138697;-78
2022/07/13 01:01:41;;;;;;;3.90;1.40;;;;;;;16.91;59.24;99703.17;106944;1279;112516;-77
2022/07/13 01:04:14;;;;;;;6.60;1.60;;;;;;;16.93;59.40;99704.84;105919;1281;139633;-77
2022/07/13 01:06:46;;;;;;;6.10;1.60;;;;;;;16.90;59.90;99699.89;105750;1281;108923;-78
2022/07/13 01:09:20;;;;;;;3.30;1.50;;;;;;;16.88;59.97;99699.52;106228;1279;97968;-77
2022/07/13 01:11:53;;;;;;;3.60;1.60;;;;;;;16.86;60.04;99695.91;105809;1279;138483;-78
2022/07/13 01:14:26;;;;;;;4.80;1.60;;;;;;;16.85;60.14;99696.90;106113;1279;111816;-77
2022/07/13 01:16:59;;;;;;;2.80;1.40;;;;;;;16.83;60.50;99688.58;105705;1279;139663;-77
2022/07/13 01:19:34;;;;;;;8.40;1.80;;;;;;;16.81;60.68;99696.08;106806;1279;108927;-77
2022/07/13 01:22:08;;;;;;;2.50;1.70;;;;;;;16.81;60.79;99692.96;105635;1281;139570;-77
2022/07/13 01:24:42;;;;;;;2.90;1.50;;;;;;;16.81;60.88;99698.77;106861;1279;96123;-78
2022/07/13 01:27:15;;;;;;;4.00;1.80;;;;;;;16.81;61.10;99686.46;105879;1279;111655;-77
2022/07/13 01:29:48;;;;;;;6.00;1.40;;;;;;;16.81;61.08;99691.38;106876;1281;138703;-77
2022/07/13 01:32:21;;;;;;;8.10;1.70;;;;;;;16.81;61.32;99679.10;106275;1279;108801;-77
2022/07/13 01:34:54;;;;;;;3.80;1.70;;;;;;;16.80;61.61;99693.91;105844;1279;139369;-77
2022/07/13 01:37:28;;;;;;;5.40;1.40;;;;;;;16.78;61.73;99674.73;106770;1281;96427;-78
2022/07/13 01:40:01;;;;;;;5.70;1.80;;;;;;;16.76;62.01;99687.67;105729;1282;139023;-78
2022/07/13 01:42:33;;;;;;;5.00;1.90;;;;;;;16.74;62.11;99678.15;105854;1279;109021;-78
2022/07/13 01:45:08;;;;;;;4.50;2.10;;;;;;;16.73;62.30;99680.89;106962;1280;108871;-79
2022/07/13 01:47:41;;;;;;;6.20;2.10;;;;;;;16.71;62.49;99688.71;107035;1279;139285;-79
2022/07/13 01:50:16;;;;;;;4.40;1.70;;;;;;;16.69;62.64;99674.98;106291;1279;96549;-78
2022/07/13 01:52:51;;;;;;;4.30;1.90;;;;;;;16.67;62.77;99679.65;105645;1279;138495;-78
2022/07/13 01:55:24;;;;;;;6.70;2.00;;;;;;;16.66;63.04;99679.53;105784;1279;108208;-78
2022/07/13 01:58:01;;;;;;;5.30;1.90;;;;;;;16.63;63.41;99673.57;106019;1281;139721;-79
2022/07/13 02:00:34;;;;;;;4.50;2.30;;;;;;;16.59;63.52;99672.60;106943;1279;96151;-79
2022/07/13 02:03:06;;;;;;;4.40;1.90;;;;;;;16.56;63.86;99674.95;106923;1279;96209;-78
2022/07/13 02:05:40;;;;;;;3.30;2.30;;;;;;;16.53;63.94;99665.69;106872;1279;139191;-78
2022/07/13 02:08:12;;;;;;;4.70;2.00;;;;;;;16.50;64.19;99676.73;106991;1281;106471;-78
2022/07/13 02:10:46;;;;;;;4.60;2.30;;;;;;;16.47;64.34;99669.90;107021;1279;138537;-78
2022/07/13 02:13:19;;;;;;;4.70;2.30;;;;;;;16.45;64.61;99667.77;107054;1279;96213;-78
2022/07/13 02:15:52;;;;;;;4.30;2.30;;;;;;;16.44;64.93;99663.11;107121;1279;96789;-76
2022/07/13 02:18:25;;;;;;;6.30;2.60;;;;;;;16.42;65.05;99667.80;107036;1279;112559;-76
2022/07/13 02:20:57;;;;;;;3.80;2.20;;;;;;;16.41;65.22;99659.30;107162;1279;109275;-78
2022/07/13 02:23:30;;;;;;;5.50;2.40;;;;;;;16.40;65.13;99673.36;106816;1279;139824;-78
2022/07/13 02:26:03;;;;;;;3.80;2.20;;;;;;;16.40;65.65;99674.79;107159;1279;95894;-76
2022/07/13 02:28:35;;;;;;;6.10;2.90;;;;;;;16.40;65.39;99667.42;107061;1279;139837;-76
2022/07/13 02:31:08;;;;;;;3.00;2.60;;;;;;;16.39;65.63;99673.42;106686;1281;111408;-77
2022/07/13 02:33:41;;;;;;;4.10;2.30;;;;;;;16.39;65.88;99671.83;106130;1279;107907;-76
2022/07/13 02:36:13;;;;;;;3.70;2.60;;;;;;;16.39;66.09;99667.98;106824;1279;138834;-75
2022/07/13 02:38:46;;;;;;;5.20;2.40;;;;;;;16.39;66.20;99671.32;105774;1279;97918;-76
2022/07/13 02:41:19;;;;;;;4.80;2.60;;;;;;;16.39;66.30;99668.91;106850;1279;138994;-77
2022/07/13 02:43:52;;;;;;;3.90;2.70;;;;;;;16.37;66.26;99667.95;106610;1279;112409;-77
2022/07/13 02:46:25;;;;;;;5.70;2.60;;;;;;;16.36;66.40;99672.39;106904;1279;140186;-77
2022/07/13 02:49:00;;;;;;;4.70;2.40;;;;;;;16.36;66.61;99668.20;106229;1281;109254;-76
2022/07/13 02:51:33;;;;;;;4.70;2.70;;;;;;;16.36;66.61;99676.46;106098;1279;97876;-77
2022/07/13 02:54:05;;;;;;;5.30;2.60;;;;;;;16.36;66.74;99674.52;105578;1281;138649;-77
2022/07/13 02:56:38;;;;;;;3.60;2.60;;;;;;;16.37;66.84;99664.83;105894;1280;111255;-77
2022/07/13 02:59:10;;;;;;;5.30;2.70;;;;;;;16.36;66.90;99671.69;105924;1279;138958;-79
2022/07/13 03:01:44;;;;;;;4.80;2.30;;;;;;;16.37;66.89;99674.11;106146;1281;108918;-79
2022/07/13 03:04:16;;;;;;;3.30;2.50;;;;;;;16.37;67.03;99673.92;105691;1281;139073;-78
2022/07/13 03:06:49;;;;;;;5.70;2.50;;;;;;;16.36;67.06;99669.41;107106;1279;96513;-79
2022/07/13 03:09:22;;;;;;;4.70;2.50;;;;;;;16.36;67.24;99671.21;106828;1281;112419;-78
2022/07/13 03:11:55;;;;;;;4.70;2.80;;;;;;;16.35;67.34;99674.56;106634;1280;138500;-79
2022/07/13 03:14:27;;;;;;;7.30;2.70;;;;;;;16.35;67.52;99670.53;106292;1281;109037;-78
2022/07/13 03:17:00;;;;;;;3.30;2.40;;;;;;;16.36;67.60;99668.19;106856;1279;139951;-78
2022/07/13 03:19:33;;;;;;;3.50;2.40;;;;;;;16.36;67.45;99670.28;106598;1281;96550;-78
2022/07/13 03:22:06;;;;;;;3.30;2.20;;;;;;;16.38;67.49;99669.98;105771;1281;138704;-77
2022/07/13 03:24:38;;;;;;;3.30;2.30;;;;;;;16.39;67.68;99670.48;107084;1279;108993;-79
2022/07/13 03:27:11;;;;;;;3.20;2.00;;;;;;;16.39;67.62;99669.59;107098;1281;107842;-78
2022/07/13 03:29:45;;;;;;;5.90;2.30;;;;;;;16.40;67.67;99670.74;106704;1281;139255;-79
2022/07/13 03:32:19;;;;;;;6.20;2.20;;;;;;;16.41;67.50;99672.23;106051;1282;97082;-78
2022/07/13 03:34:51;;;;;;;3.00;2.00;;;;;;;16.43;67.73;99670.70;107016;1280;138581;-77
2022/07/13 03:37:25;;;;;;;4.70;2.20;;;;;;;16.42;67.53;99669.72;107029;1281;109043;-77
2022/07/13 03:39:58;;;;;;;4.20;1.90;;;;;;;16.47;67.57;99673.59;106099;1281;138903;-77
2022/07/13 03:42:33;;;;;;;5.60;2.10;;;;;;;16.50;67.43;99679.71;107100;1281;97686;-78
2022/07/13 03:45:06;;;;;;;4.20;2.00;;;;;;;16.52;67.42;99672.71;106957;1280;96928;-79
2022/07/13 03:47:39;;;;;;;5.60;1.70;;;;;;;16.54;67.38;99673.48;106752;1281;139372;-77
2022/07/13 03:50:12;;;;;;;4.40;2.00;;;;;;;16.56;67.29;99677.90;106990;1281;108950;-78
2022/07/13 03:52:49;;;;;;;7.90;2.10;;;;;;;16.60;67.32;99677.66;106006;1281;138806;-77
2022/07/13 03:55:22;;;;;;;3.20;1.90;;;;;;;16.62;67.15;99679.77;106201;1281;97830;-78
2022/07/13 03:57:55;;;;;;;6.20;2.30;;;;;;;16.67;67.18;99677.55;105636;1281;138544;-77
2022/07/13 04:00:28;;;;;;;3.70;1.60;;;;;;;16.69;67.10;99686.36;105719;1281;113026;-78
2022/07/13 04:03:01;;;;;;;4.50;1.80;;;;;;;16.71;66.88;99686.80;105968;1281;109027;-79
2022/07/13 04:05:34;;;;;;;4.00;1.90;;;;;;;16.73;67.01;99686.30;106734;1281;139439;-77
2022/07/13 04:08:07;;;;;;;5.50;2.00;;;;;;;16.75;67.05;99686.86;105975;1281;97863;-79
2022/07/13 04:10:40;;;;;;;2.70;1.80;;;;;;;16.79;66.97;99677.31;105648;1279;138611;-77
2022/07/13 04:13:14;;;;;;;4.80;1.70;;;;;;;16.80;66.97;99685.11;105757;1281;112515;-77
2022/07/13 04:15:48;;;;;;;4.40;1.70;;;;;;;16.80;66.90;99690.90;105810;1281;108831;-76
2022/07/13 04:18:21;;;;;;;4.60;1.70;;;;;;;16.80;66.89;99694.02;106889;1281;108958;-76
2022/07/13 04:20:56;;;;;;;5.70;1.70;;;;;;;16.81;66.90;99690.66;105863;1281;97911;-75
2022/07/13 04:23:30;;;;;;;2.80;1.70;;;;;;;16.81;66.98;99692.44;106607;1281;138687;-76
2022/07/13 04:26:03;;;;;;;4.30;1.80;;;;;;;16.80;66.90;99692.28;105818;1281;111099;-75
2022/07/13 04:28:37;;;;;;;4.70;2.00;;;;;;;16.80;66.74;99694.63;105756;1281;139355;-75
2022/07/13 04:31:09;;;;;;;5.50;1.70;;;;;;;16.79;66.91;99700.48;106504;1281;108294;-76
2022/07/13 04:33:43;;;;;;;5.70;1.90;;;;;;;16.78;66.91;99699.83;106847;1281;96025;-76
2022/07/13 04:36:16;;;;;;;4.60;1.90;;;;;;;16.76;66.86;99702.06;106344;1281;139284;-76
2022/07/13 04:38:49;;;;;;;4.80;1.70;;;;;;;16.77;66.90;99702.55;105729;1281;112345;-76
2022/07/13 04:41:21;;;;;;;3.50;1.70;;;;;;;16.79;66.90;99700.65;106871;1280;138949;-76
2022/07/13 04:43:54;;;;;;;3.00;1.60;;;;;;;16.81;66.77;99699.81;106280;1281;106416;-76
2022/07/13 04:46:27;;;;;;;4.40;1.70;;;;;;;16.84;66.67;99696.75;107003;1279;139228;-76
2022/07/13 04:49:00;;;;;;;2.30;1.50;;;;;;;16.90;66.54;99698.88;106731;1281;96120;-76
2022/07/13 04:51:35;;;;;;;5.50;1.60;;;;;;;16.95;66.65;99694.69;106742;1281;112467;-76
2022/07/13 04:54:08;;;;;;;4.10;2.00;;;;;;;16.99;66.38;99700.52;106195;1281;138918;-75
2022/07/13 04:56:40;;;;;;;2.50;1.60;;;;;;;17.06;66.29;99697.98;105662;1281;108715;-76
2022/07/13 04:59:15;;;;;;;4.30;1.80;;;;;;;17.13;66.01;99699.38;106779;1281;139427;-76
2022/07/13 05:01:47;;;;;;;4.50;1.70;;;;;;;17.19;65.92;99695.50;106895;1279;98141;-76
2022/07/13 05:04:20;;;;;;;4.60;1.80;;;;;;;17.25;65.77;99706.89;105651;1281;138634;-76
2022/07/13 05:06:53;;;;;;;4.40;1.60;;;;;;;17.29;65.73;99709.59;105650;1281;109527;-76
2022/07/13 05:09:25;;;;;;;2.30;1.50;;;;;;;17.32;65.71;99709.52;105693;1281;108369;-76
2022/07/13 05:11:58;;;;;;;6.00;1.60;;;;;;;17.32;65.52;99707.22;106868;1281;139145;-76
2022/07/13 05:14:30;;;;;;;4.80;1.70;;;;;;;17.31;65.43;99706.23;106079;1281;97793;-76
2022/07/13 05:17:03;;;;;;;2.80;1.30;;;;;;;17.30;65.38;99706.65;106858;1281;138984;-76
2022/07/13 05:19:36;;;;;;;7.20;2.60;;;;;;;17.30;65.33;99709.86;105682;1281;109079;-76
2022/07/13 05:22:08;;;;;;;2.70;1.40;;;;;;;17.26;65.35;99710.85;105490;1281;140270;-76
2022/07/13 05:24:44;;;;;;;2.20;1.40;;;;;;;17.22;65.41;99710.34;106308;1278;98336;-75
2022/07/13 05:27:18;;;;;;;4.60;1.60;;;;;;;17.20;65.29;99709.81;106155;1278;97839;-76
2022/07/13 05:29:51;;;;;;;3.50;1.50;;;;;;;17.19;65.31;99709.02;106746;1281;138912;-76
2022/07/13 05:32:23;;;;;;;3.60;1.70;;;;;;;17.19;65.39;99704.98;105890;1281;107754;-76
2022/07/13 05:34:57;;;;;;;4.30;1.70;;;;;;;17.18;65.40;99700.98;105831;1279;138711;-76
2022/07/13 05:37:29;;;;;;;3.50;1.70;;;;;;;17.20;65.31;99704.02;105879;1279;97783;-77
2022/07/13 05:40:03;;;;;;;4.30;1.70;;;;;;;17.20;65.55;99697.30;105507;1281;140082;-76
2022/07/13 05:42:35;;;;;;;2.40;1.60;;;;;;;17.21;65.53;99710.63;106610;1281;112591;-77
2022/07/13 05:45:10;;;;;;;4.10;1.70;;;;;;;17.24;65.71;99712.01;106143;1281;107895;-76
2022/07/13 05:47:47;;;;;;;3.70;1.50;;;;;;;17.27;65.64;99714.79;106751;1279;138726;-77
2022/07/13 05:50:21;;;;;;;3.70;1.90;;;;;;;17.32;65.80;99717.80;106875;1281;96204;-76
2022/07/13 05:52:54;;;;;;;3.30;1.60;;;;;;;17.37;65.72;99725.33;106801;1279;138633;-76
2022/07/13 05:55:28;;;;;;;2.00;1.40;;;;;;;17.47;65.64;99727.64;106878;1280;111240;-77
2022/07/13 05:58:00;;;;;;;4.00;1.70;;;;;;;17.59;65.54;99727.89;106878;1279;138830;-76
2022/07/13 06:00:33;;;;;;;3.90;1.70;;;;;;;17.72;65.50;99731.73;107077;1279;107442;-77
2022/07/13 06:03:05;;;;;;;3.50;1.70;;;;;;;17.92;65.17;99740.17;106974;1279;97000;-77
2022/07/13 06:05:38;;;;;;;2.80;1.50;;;;;;;18.07;64.96;99735.92;106733;1279;138316;-75
2022/07/13 06:08:10;;;;;;;3.50;1.40;;;;;;;18.22;64.55;99738.20;105777;1281;111474;-76
2022/07/13 06:10:44;;;;;;;4.70;1.60;;;;;;;18.38;64.21;99740.73;105902;1281;138825;-78
2022/07/13 06:13:16;;;;;;;3.10;1.40;;;;;;;18.53;63.99;99744.41;105827;1281;109035;-76
2022/07/13 06:15:49;;;;;;;3.90;1.50;;;;;;;18.71;63.61;99744.55;107071;1279;96229;-75
2022/07/13 06:18:21;;;;;;;3.80;2.10;;;;;;;18.93;63.07;99742.34;107120;1281;96141;-75
2022/07/13 06:20:54;;;;;;;2.20;1.50;;;;;;;19.21;62.38;99740.06;107064;1280;111678;-76
2022/07/13 06:23:26;;;;;;;4.40;1.50;;;;;;;19.46;61.30;99734.64;106875;1281;140264;-75
2022/07/13 06:26:01;;;;;;;5.60;1.40;;;;;;;19.69;60.63;99739.08;107081;1281;109070;-76
2022/07/13 06:28:33;;;;;;;2.30;1.30;;;;;;;20.19;60.19;99742.16;105633;1281;139540;-77
2022/07/13 06:31:06;;;;;;;5.40;1.30;;;;;;;20.88;58.54;99742.71;106741;1280;97875;-75
2022/07/13 06:33:41;;;;;;;3.60;1.20;;;;;;;21.72;57.53;99744.91;105764;1281;112701;-79
2022/07/13 06:36:14;;;;;;;3.80;1.10;;;;;;;23.27;55.37;99728.56;106956;1280;138498;-77
2022/07/13 06:38:46;;;;;;;2.70;1.20;;;;;;;24.68;52.64;99734.93;105892;1281;110492;-64
2022/07/13 06:41:19;;;;;;;3.10;1.10;;;;;;;25.90;49.98;99724.98;106979;1279;139338;-63
2022/07/13 06:43:51;;;;;;;2.90;1.00;;;;;;;27.76;48.62;99723.32;107087;1279;96027;-63
2022/07/13 06:46:24;;;;;;;4.60;1.30;;;;;;;29.94;46.21;99718.91;106902;1279;137798;-63
2022/07/13 06:48:58;;;;;;;3.10;0.90;;;;;;;31.84;42.63;99716.83;105895;1281;110173;-62
2022/07/13 06:51:30;;;;;;;1.70;1.10;;;;;;;33.30;40.25;99719.33;107116;1279;106631;-63
2022/07/13 06:54:03;;;;;;;1.60;0.90;;;;;;;34.39;36.36;99717.52;106076;1280;138039;-63
2022/07/13 06:56:35;;;;;;;2.50;0.70;;;;;;;34.79;36.11;99719.33;105746;1281;97876;-63
2022/07/13 06:59:07;;;;;;;2.50;0.90;;;;;;;35.07;35.69;99719.42;105703;1281;137748;-63
2022/07/13 07:01:40;;;;;;;2.90;1.00;;;;;;;35.21;33.76;99711.63;105806;1281;107948;-63
2022/07/13 07:04:13;;;;;;;4.10;0.80;;;;;;;35.67;33.54;99717.05;107002;1281;138020;-63
2022/07/13 07:06:45;;;;;;;2.00;1.00;;;;;;;36.43;32.94;99713.51;107024;1281;98302;-63
2022/07/13 07:09:18;;;;;;;1.60;0.70;;;;;;;37.35;31.69;99719.04;106132;1279;97851;-63
2022/07/13 07:11:51;;;;;;;2.80;1.10;;;;;;;38.12;30.51;99715.54;106937;1279;138548;-64
2022/07/13 07:14:24;;;;;;;2.80;1.20;;;;;;;38.93;29.61;99713.09;105739;1281;108931;-63
2022/07/13 07:16:58;;;;;;;1.50;0.80;;;;;;;39.78;28.25;99718.20;106988;1280;138350;-63
2022/07/13 07:19:31;;;;;;;3.40;0.90;;;;;;;40.36;27.35;99707.14;107113;1279;96177;-63
2022/07/13 07:22:03;;;;;;;2.50;0.90;;;;;;;40.58;26.88;99712.30;106987;1280;139684;-63
2022/07/13 07:24:35;;;;;;;2.00;0.90;;;;;;;40.27;25.74;99704.68;107138;1279;112433;-64
2022/07/13 07:27:10;;;;;;;1.40;0.40;;;;;;;39.76;25.48;99716.71;107136;1279;108364;-63
2022/07/13 07:29:42;;;;;;;1.90;1.00;;;;;;;39.45;26.20;99718.34;106958;1279;138459;-63
2022/07/13 07:32:15;;;;;;;1.90;0.90;;;;;;;39.49;26.03;99708.91;107086;1280;96961;-63
2022/07/13 07:34:47;;;;;;;1.40;0.80;;;;;;;39.44;26.19;99704.73;106961;1280;138255;-63
2022/07/13 07:37:23;;;;;;;6.10;1.00;;;;;;;39.85;26.54;99707.94;107123;1279;112512;-63
2022/07/13 07:39:55;;;;;;;1.40;0.70;;;;;;;40.52;25.90;99701.57;106935;1281;138094;-64
2022/07/13 07:42:32;;;;;;;1.60;0.70;;;;;;;41.06;24.75;99696.83;107142;1279;108994;-64
2022/07/13 07:45:05;;;;;;;2.70;0.90;;;;;;;41.31;24.21;99693.02;106732;1279;96069;-64
2022/07/13 07:47:39;;;;;;;2.80;0.70;;;;;;;41.70;23.95;99695.98;107026;1280;137692;-64
2022/07/13 07:50:15;;;;;;;2.20;0.80;;;;;;;41.81;22.85;99696.20;106196;1279;112334;-64
2022/07/13 07:52:47;;;;;;;4.30;0.90;;;;;;;41.74;22.14;99694.54;106965;1280;138599;-62
2022/07/13 07:55:26;;;;;;;2.00;0.70;;;;;;;41.49;21.56;99693.19;107062;1281;108872;-63
2022/07/13 07:57:59;;;;;;;1.90;0.70;;;;;;;41.25;22.03;99692.48;105994;1279;138501;-62
2022/07/13 08:00:32;;;;;;;1.90;0.80;;;;;;;41.26;22.12;99694.45;106968;1279;96117;-63
2022/07/13 08:03:06;;;;;;;3.20;1.00;;;;;;;41.28;21.18;99689.94;106658;1278;112393;-62
2022/07/13 08:05:41;;;;;;;3.50;0.90;;;;;;;41.16;21.46;99690.49;106969;1280;139620;-63
2022/07/13 08:08:14;;;;;;;1.20;0.70;;;;;;;41.25;21.64;99688.77;106122;1279;108371;-62
2022/07/13 08:10:46;;;;;;;1.80;0.60;;;;;;;41.23;20.61;99685.63;106952;1279;137819;-63
2022/07/13 08:13:18;;;;;;;1.60;0.70;;;;;;;41.01;20.85;99685.67;107127;1279;96111;-63
2022/07/13 08:15:51;;;;;;;3.90;1.00;;;;;;;40.96;20.80;99695.02;107119;1279;112105;-63
2022/07/13 08:18:23;;;;;;;2.90;0.70;;;;;;;40.88;20.98;99686.99;107096;1279;110484;-63
2022/07/13 08:21:16;;;;;;;1.70;0.60;;;;;;;40.82;20.29;99688.63;107137;1279;108796;-63
2022/07/13 08:23:54;;;;;;;1.30;0.70;;;;;;;40.59;20.43;99683.93;106669;1279;137962;-63
2022/07/13 08:26:28;;;;;;;0.70;0.60;;;;;;;40.18;20.08;99682.23;105785;1279;97935;-63
2022/07/13 08:29:02;;;;;;;3.60;0.90;;;;;;;39.94;20.63;99687.47;105722;1280;137743;-63
2022/07/13 08:31:34;;;;;;;2.40;0.60;;;;;;;39.81;20.59;99694.77;105764;1279;108394;-62
2022/07/13 08:39:47;;;;;;;9.50;1.20;;;;;;;39.02;20.99;99700.46;107019;1279;96154;-63
2022/07/13 08:42:19;;;;;;;2.30;0.60;;;;;;;38.64;20.88;99705.48;106555;1279;112469;-63
2022/07/13 08:44:52;;;;;;;2.10;0.80;;;;;;;38.36;21.72;99705.34;105804;1279;108884;-63
2022/07/13 08:47:28;;;;;;;1.80;0.60;;;;;;;38.28;21.79;99714.35;106256;1279;138005;-63
2022/07/13 08:50:07;;;;;;;4.50;0.80;;;;;;;38.22;21.63;99717.70;105871;1280;97977;-62
2022/07/13 08:52:41;;;;;;;1.00;0.50;;;;;;;38.11;21.35;99710.82;106991;1279;138560;-63
2022/07/13 08:55:14;;;;;;;2.80;1.00;;;;;;;37.68;21.34;99712.73;107144;1279;112679;-62
2022/07/13 08:57:47;;;;;;;6.40;0.60;;;;;;;37.23;21.97;99714.93;107094;1279;109066;-64
2022/07/13 09:00:21;;;;;;;2.40;0.80;;;;;;;37.12;22.49;99716.91;107018;1279;137856;-63
2022/07/13 09:02:54;;;;;;;1.10;0.70;;;;;;;37.14;22.61;99720.77;107128;1279;97823;-63
2022/07/13 09:05:30;;;;;;;2.00;1.00;;;;;;;36.98;22.71;99723.41;106838;1279;137701;-63
2022/07/13 09:08:07;;;;;;;2.50;0.80;;;;;;;36.92;22.93;99725.86;106673;1279;111718;-63
2022/07/13 09:13:39;;;;;;;3.40;1.00;;;;;;;36.56;23.20;99724.96;102911;1309;636408;-62
2022/07/13 09:16:21;;;;;;;4.40;1.00;;;;;;;36.44;23.29;99714.98;107747;1268;137689;-63
2022/07/13 09:18:55;;;;;;;2.70;1.00;;;;;;;36.25;23.12;99726.49;106261;1271;94331;-63
2022/07/13 09:21:33;;;;;;;3.90;1.20;;;;;;;36.00;23.30;99725.17;106593;1271;108446;-62
2022/07/13 09:24:07;;;;;;;3.70;1.10;;;;;;;35.63;23.02;99722.48;106450;1271;137510;-77
2022/07/13 09:26:43;;;;;;;2.90;1.30;;;;;;;35.32;23.40;99735.11;106131;1270;283418;-79
2022/07/13 09:29:16;;;;;;;1.70;1.00;;;;;;;35.09;23.98;99742.04;107252;1267;136724;-78
2022/07/13 09:31:58;;;;;;;2.80;0.70;;;;;;;35.06;24.33;99739.99;106498;1270;94397;-78
2022/07/13 09:34:52;;;;;;;2.40;0.90;;;;;;;35.03;24.14;99746.22;107757;1270;137662;-78
2022/07/13 09:37:27;;;;;;;4.60;1.00;;;;;;;34.91;24.39;99745.73;107885;1270;109103;-79
2022/07/13 09:40:01;;;;;;;1.80;0.80;;;;;;;34.84;24.21;99748.19;107742;1268;137112;-77
2022/07/13 09:42:36;;;;;;;1.80;0.80;;;;;;;34.75;24.21;99749.55;107775;1267;94166;-77
2022/07/13 09:48:02;;;;;;;3.50;0.90;;;;;;;34.45;23.97;99746.10;107110;1268;136856;-80
2022/07/13 09:50:41;;;;;;;4.30;1.00;;;;;;;34.12;24.29;99754.14;106520;1268;107295;-77
2022/07/13 09:53:28;;;;;;;2.30;0.80;;;;;;;33.86;24.37;99752.75;106233;1270;137248;-77
2022/07/13 09:56:03;;;;;;;2.20;1.10;;;;;;;33.72;24.62;99748.44;107259;1268;95249;-83
2022/07/13 09:58:37;;;;;;;2.90;1.00;;;;;;;33.63;25.28;99761.33;106243;1268;137456;-80
2022/07/13 10:01:10;;;;;;;0.90;0.70;;;;;;;33.60;25.33;99761.50;107034;1268;109859;-79
2022/07/13 10:03:43;;;;;;;3.40;0.90;;;;;;;33.59;25.65;99763.70;106710;1270;108841;-79
2022/07/13 10:06:20;;;;;;;2.70;0.90;;;;;;;33.57;25.66;99760.03;107490;1269;137379;-76
2022/07/13 10:08:53;;;;;;;3.00;0.80;;;;;;;33.43;25.70;99750.61;107807;1270;94930;-76
2022/07/13 10:11:31;;;;;;;1.70;1.00;;;;;;;33.20;26.33;99757.86;107763;1270;138157;-77
2022/07/13 10:14:06;;;;;;;2.90;0.90;;;;;;;33.24;26.72;99762.36;107873;1270;110132;-77
2022/07/13 10:16:39;;;;;;;4.30;1.00;;;;;;;33.37;26.62;99768.16;107808;1269;137530;-77
2022/07/13 10:19:13;;;;;;;4.40;1.40;;;;;;;33.44;26.41;99760.67;107866;1270;108481;-77
2022/07/13 10:22:04;;;;;;;5.70;1.30;;;;;;;33.36;26.42;99763.79;107839;1270;93185;-75
2022/07/13 10:24:37;;;;;;;3.20;1.10;;;;;;;33.36;26.88;99760.09;106598;1270;95125;-78
2022/07/13 10:27:29;;;;;;;2.30;0.90;;;;;;;33.33;26.90;99767.04;105933;1270;109306;-79
2022/07/13 10:30:07;;;;;;;3.10;1.00;;;;;;;33.17;27.05;99766.34;105998;1270;138275;-75
2022/07/13 10:32:42;;;;;;;5.10;1.30;;;;;;;33.17;27.37;99760.69;106239;1270;109001;-79
2022/07/13 10:35:17;;;;;;;4.80;1.10;;;;;;;33.01;27.53;99770.83;107715;1270;136910;-77
2022/07/13 10:38:17;;;;;;;3.30;0.80;;;;;;;32.88;27.85;99763.83;107396;1270;95015;-76
2022/07/13 10:40:49;;;;;;;5.20;1.00;;;;;;;32.72;27.88;99763.56;107743;1270;136725;-78
2022/07/13 10:43:22;;;;;;;6.00;1.10;;;;;;;32.54;27.89;99764.63;107734;1270;107919;-78
2022/07/13 10:45:55;;;;;;;4.60;1.20;;;;;;;32.45;28.55;99772.69;107780;1270;137466;-73
2022/07/13 10:48:48;;;;;;;6.50;1.20;;;;;;;32.50;29.19;99771.30;106782;1270;95248;-77
2022/07/13 10:51:22;;;;;;;6.70;1.10;;;;;;;32.54;29.18;99769.20;106295;1270;95143;-76
2022/07/13 10:54:11;;;;;;;2.80;1.10;;;;;;;32.37;28.63;99764.98;107742;1270;137683;-76
2022/07/13 10:57:14;;;;;;;4.30;1.30;;;;;;;32.20;29.06;99766.64;107855;1270;108883;-74
2022/07/13 10:59:53;;;;;;;10.20;1.30;;;;;;;31.95;29.02;99768.70;106614;1270;139421;-75
2022/07/13 11:02:47;;;;;;;6.00;1.20;;;;;;;31.62;29.37;99769.14;107847;1270;93386;-75
2022/07/13 11:05:21;;;;;;;3.80;1.30;;;;;;;31.32;29.77;99773.42;106682;1270;138136;-74
2022/07/13 11:07:55;;;;;;;5.50;1.40;;;;;;;31.07;30.20;99774.13;106281;1270;110328;-74
2022/07/13 11:10:30;;;;;;;9.50;1.40;;;;;;;30.81;30.43;99774.03;106203;1270;137364;-75
2022/07/13 11:13:08;;;;;;;5.40;1.20;;;;;;;30.50;30.70;99770.32;107839;1270;107833;-75
2022/07/13 11:15:48;;;;;;;4.20;1.20;;;;;;;30.31;31.33;99784.84;106647;1270;95122;-75
2022/07/13 11:18:31;;;;;;;1.90;1.30;;;;;;;30.07;31.58;99776.30;107270;1270;95156;-75
2022/07/13 11:21:05;;;;;;;8.60;1.20;;;;;;;29.99;32.41;99772.62;107855;1270;107198;-77
2022/07/13 11:27:01;;;;;;;5.80;1.10;;;;;;;29.86;32.31;99764.08;106310;1270;108826;-75
2022/07/13 11:29:44;;;;;;;3.10;1.20;;;;;;;29.58;32.48;99766.12;106228;1270;137265;-75
2022/07/13 11:32:22;;;;;;;6.50;1.50;;;;;;;29.40;32.43;99768.20;106379;1270;95099;-74
2022/07/13 11:34:54;;;;;;;5.10;1.30;;;;;;;29.36;32.63;99760.14;106273;1270;137488;-75
2022/07/13 11:37:27;;;;;;;6.30;1.20;;;;;;;29.44;32.60;99768.45;106366;1270;108973;-74
2022/07/13 11:40:00;;;;;;;9.10;1.50;;;;;;;29.56;32.90;99767.44;107774;1270;137964;-74
2022/07/13 11:42:32;;;;;;;3.60;1.70;;;;;;;29.61;32.66;99763.95;107542;1270;94335;-76
2022/07/13 11:45:05;;;;;;;4.00;1.30;;;;;;;29.64;32.65;99768.45;106326;1271;95120;-74
2022/07/13 11:47:37;;;;;;;4.60;1.10;;;;;;;29.64;32.61;99769.86;107377;1270;137141;-76
2022/07/13 11:50:11;;;;;;;5.20;1.30;;;;;;;29.62;32.77;99770.66;106275;1271;109056;-79
2022/07/13 11:52:44;;;;;;;4.00;1.00;;;;;;;29.68;32.75;99764.41;107308;1270;136984;-76
2022/07/13 11:55:16;;;;;;;6.60;1.30;;;;;;;29.63;32.93;99772.02;106296;1270;95236;-79
2022/07/13 11:57:49;;;;;;;3.30;1.20;;;;;;;29.71;33.31;99771.36;107870;1270;93154;-76
2022/07/13 12:00:22;;;;;;;2.90;1.30;;;;;;;29.82;32.83;99761.06;107076;1270;109169;-76
2022/07/13 12:02:55;;;;;;;2.80;1.10;;;;;;;29.79;32.77;99764.27;106392;1270;108787;-77
2022/07/13 12:05:29;;;;;;;5.00;1.60;;;;;;;29.65;32.94;99765.98;106759;1270;137556;-76